Aviation Digital Data Service (ADDS)

Output produced by METARs form (1839 UTC 18 June 2019)
found at http://www.aviationweather.gov/metar/data/
 
METAR text: KRFD 181754Z 00000KT 10SM SCT035 SCT250 26/17 A2995 RMK AO2 SLP140 T02560167 10256 20150 58009
Conditions at: KRFD (ROCKFORD , IL, US) observed 1754 UTC 18 June 2019
Temperature: 25.6°C (78°F)
Dewpoint: 16.7°C (62°F) [RH = 58%]
Pressure (altimeter): 29.95 inches Hg (1014.3 mb)
[Sea-level pressure: 1014.0 mb]
Winds: calm
Visibility: 10 or more miles (16+ km)
Ceiling: at least 12,000 feet AGL
Clouds: scattered clouds at 3500 feet AGL
scattered clouds at 25000 feet AGL
Weather: no significant weather observed at this time

METAR text: KRFD 181654Z 33003KT 10SM BKN030 24/16 A2997 RMK AO2 SLP145 T02390161
Conditions at: KRFD (ROCKFORD , IL, US) observed 1654 UTC 18 June 2019
Temperature: 23.9°C (75°F)
Dewpoint: 16.1°C (61°F) [RH = 62%]
Pressure (altimeter): 29.97 inches Hg (1015.0 mb)
[Sea-level pressure: 1014.5 mb]
Winds: from the NNW (330 degrees) at 3 MPH (3 knots; 1.5 m/s)
Visibility: 10 or more miles (16+ km)
Ceiling: 3000 feet AGL
Clouds: broken clouds at 3000 feet AGL
Weather: no significant weather observed at this time

METAR text: KRFD 181614Z 00000KT 10SM FEW024 SCT030 SCT090 24/17 A2998 RMK AO2 T02390172
Conditions at: KRFD (ROCKFORD , IL, US) observed 1614 UTC 18 June 2019
Temperature: 23.9°C (75°F)
Dewpoint: 17.2°C (63°F) [RH = 66%]
Pressure (altimeter): 29.98 inches Hg (1015.3 mb)
Winds: calm
Visibility: 10 or more miles (16+ km)
Ceiling: at least 12,000 feet AGL
Clouds: few clouds at 2400 feet AGL
scattered clouds at 3000 feet AGL
scattered clouds at 9000 feet AGL
Weather: no significant weather observed at this time

METAR text: KRFD 181554Z VRB03KT 10SM BKN024 BKN160 24/17 A2998 RMK AO2 SLP148 T02390167
Conditions at: KRFD (ROCKFORD , IL, US) observed 1554 UTC 18 June 2019
Temperature: 23.9°C (75°F)
Dewpoint: 16.7°C (62°F) [RH = 64%]
Pressure (altimeter): 29.98 inches Hg (1015.3 mb)
[Sea-level pressure: 1014.8 mb]
Winds: variable direction winds at 3 MPH (3 knots; 1.5 m/s)
Visibility: 10 or more miles (16+ km)
Ceiling: 2400 feet AGL
Clouds: broken clouds at 2400 feet AGL
broken clouds at 16000 feet AGL
Weather: no significant weather observed at this time

METAR text: KRFD 181531Z 34004KT 10SM BKN022 22/17 A2998 RMK AO2 T02220167
Conditions at: KRFD (ROCKFORD , IL, US) observed 1531 UTC 18 June 2019
Temperature: 22.2°C (72°F)
Dewpoint: 16.7°C (62°F) [RH = 71%]
Pressure (altimeter): 29.98 inches Hg (1015.3 mb)
Winds: from the NNW (340 degrees) at 5 MPH (4 knots; 2.1 m/s)
Visibility: 10 or more miles (16+ km)
Ceiling: 2200 feet AGL
Clouds: broken clouds at 2200 feet AGL
Weather: no significant weather observed at this time

METAR text: KRFD 181454Z 36003KT 10SM FEW060 SCT250 22/17 A2998 RMK AO2 SLP149 T02220167 58002
Conditions at: KRFD (ROCKFORD , IL, US) observed 1454 UTC 18 June 2019
Temperature: 22.2°C (72°F)
Dewpoint: 16.7°C (62°F) [RH = 71%]
Pressure (altimeter): 29.98 inches Hg (1015.3 mb)
[Sea-level pressure: 1014.9 mb]
Winds: from the N (360 degrees) at 3 MPH (3 knots; 1.5 m/s)
Visibility: 10 or more miles (16+ km)
Ceiling: at least 12,000 feet AGL
Clouds: few clouds at 6000 feet AGL
scattered clouds at 25000 feet AGL
Weather: no significant weather observed at this time

METAR text: KRFD 181354Z 00000KT 7SM FEW010 FEW150 19/17 A2998 RMK AO2 SLP150 T01940167
Conditions at: KRFD (ROCKFORD , IL, US) observed 1354 UTC 18 June 2019
Temperature: 19.4°C (67°F)
Dewpoint: 16.7°C (62°F) [RH = 84%]
Pressure (altimeter): 29.98 inches Hg (1015.3 mb)
[Sea-level pressure: 1015.0 mb]
Winds: calm
Visibility: 7 miles (11 km)
Ceiling: at least 12,000 feet AGL
Clouds: few clouds at 1000 feet AGL
few clouds at 15000 feet AGL
Weather: no significant weather observed at this time

METAR text: KRFD 181254Z 00000KT 4SM BR SCT250 17/16 A2999 RMK AO2 SLP154 T01670156
Conditions at: KRFD (ROCKFORD , IL, US) observed 1254 UTC 18 June 2019
Temperature: 16.7°C (62°F)
Dewpoint: 15.6°C (60°F) [RH = 93%]
Pressure (altimeter): 29.99 inches Hg (1015.7 mb)
[Sea-level pressure: 1015.4 mb]
Winds: calm
Visibility: 4 miles ( 6 km)
Ceiling: at least 12,000 feet AGL
Clouds: scattered clouds at 25000 feet AGL
Weather: BR  (mist)

METAR text: KRFD 181154Z 00000KT 3SM BCFG BR SCT250 15/14 A2999 RMK AO2 SLP152 VIS SW 2 T01500139 10156 20128 58001
Conditions at: KRFD (ROCKFORD , IL, US) observed 1154 UTC 18 June 2019
Temperature: 15.0°C (59°F)
Dewpoint: 13.9°C (57°F) [RH = 93%]
Pressure (altimeter): 29.99 inches Hg (1015.7 mb)
[Sea-level pressure: 1015.2 mb]
Winds: calm
Visibility: 3 miles ( 5 km)
Ceiling: at least 12,000 feet AGL
Clouds: scattered clouds at 25000 feet AGL
Weather: BCFG BR  (patches of fog, mist)

METAR text: KRFD 181054Z 16003KT 3SM BCFG BR SCT250 13/12 A2999 RMK AO2 SLP154 VIS SW-W 1 1/2 T01280122
Conditions at: KRFD (ROCKFORD , IL, US) observed 1054 UTC 18 June 2019
Temperature: 12.8°C (55°F)
Dewpoint: 12.2°C (54°F) [RH = 96%]
Pressure (altimeter): 29.99 inches Hg (1015.7 mb)
[Sea-level pressure: 1015.4 mb]
Winds: from the SSE (160 degrees) at 3 MPH (3 knots; 1.5 m/s)
Visibility: 3 miles ( 5 km)
Ceiling: at least 12,000 feet AGL
Clouds: scattered clouds at 25000 feet AGL
Weather: BCFG BR  (patches of fog, mist)

METAR text: KRFD 180954Z 00000KT 3SM BCFG BR FEW005 SCT250 14/13 A2999 RMK AO2 SLP154 VIS SW-W 3/4 T01390128
Conditions at: KRFD (ROCKFORD , IL, US) observed 0954 UTC 18 June 2019
Temperature: 13.9°C (57°F)
Dewpoint: 12.8°C (55°F) [RH = 93%]
Pressure (altimeter): 29.99 inches Hg (1015.7 mb)
[Sea-level pressure: 1015.4 mb]
Winds: calm
Visibility: 3 miles ( 5 km)
Ceiling: at least 12,000 feet AGL
Clouds: few clouds at 500 feet AGL
scattered clouds at 25000 feet AGL
Weather: BCFG BR  (patches of fog, mist)

METAR text: KRFD 180939Z 00000KT 1 1/2SM BCFG BR FEW005 SCT250 14/13 A2999 RMK AO2 TWR VIS 1 3/4 VIS SW-W 1 T01390133
Conditions at: KRFD (ROCKFORD , IL, US) observed 0939 UTC 18 June 2019
Temperature: 13.9°C (57°F)
Dewpoint: 13.3°C (56°F) [RH = 96%]
Pressure (altimeter): 29.99 inches Hg (1015.7 mb)
Winds: calm
Visibility: 1.50 miles (2.41 km)
Ceiling: at least 12,000 feet AGL
Clouds: few clouds at 500 feet AGL
scattered clouds at 25000 feet AGL
Weather: BCFG BR  (patches of fog, mist)

METAR text: KRFD 180928Z 00000KT 1 3/4SM BR BCFG FEW250 14/13 A2999 RMK AO2 TWR VIS 2 1/2 VIS SW-NW 1 1/2 T01390133
Conditions at: KRFD (ROCKFORD , IL, US) observed 0928 UTC 18 June 2019
Temperature: 13.9°C (57°F)
Dewpoint: 13.3°C (56°F) [RH = 96%]
Pressure (altimeter): 29.99 inches Hg (1015.7 mb)
Winds: calm
Visibility: 1.75 miles (2.82 km)
Ceiling: at least 12,000 feet AGL
Clouds: few clouds at 25000 feet AGL
Weather: BR BCFG  (mist, patches of fog)

METAR text: KRFD 180854Z 00000KT 7SM BCFG FEW250 14/14 A2999 RMK AO2 SLP153 VIS SW-NW 1 1/2 T01440139 58001
Conditions at: KRFD (ROCKFORD , IL, US) observed 0854 UTC 18 June 2019
Temperature: 14.4°C (58°F)
Dewpoint: 13.9°C (57°F) [RH = 97%]
Pressure (altimeter): 29.99 inches Hg (1015.7 mb)
[Sea-level pressure: 1015.3 mb]
Winds: calm
Visibility: 7 miles (11 km)
Ceiling: at least 12,000 feet AGL
Clouds: few clouds at 25000 feet AGL
Weather: BCFG  (patches of fog)

METAR text: KRFD 180754Z 00000KT 7SM BCFG FEW250 14/13 A3000 RMK AO2 SLP156 VIS SW-W 2 T01390133
Conditions at: KRFD (ROCKFORD , IL, US) observed 0754 UTC 18 June 2019
Temperature: 13.9°C (57°F)
Dewpoint: 13.3°C (56°F) [RH = 96%]
Pressure (altimeter): 30.00 inches Hg (1016.0 mb)
[Sea-level pressure: 1015.6 mb]
Winds: calm
Visibility: 7 miles (11 km)
Ceiling: at least 12,000 feet AGL
Clouds: few clouds at 25000 feet AGL
Weather: BCFG  (patches of fog)

METAR text: KRFD 180654Z 00000KT 8SM SCT250 15/14 A3001 RMK AO2 SLP159 T01500139
Conditions at: KRFD (ROCKFORD , IL, US) observed 0654 UTC 18 June 2019
Temperature: 15.0°C (59°F)
Dewpoint: 13.9°C (57°F) [RH = 93%]
Pressure (altimeter): 30.01 inches Hg (1016.3 mb)
[Sea-level pressure: 1015.9 mb]
Winds: calm
Visibility: 8 miles (13 km)
Ceiling: at least 12,000 feet AGL
Clouds: scattered clouds at 25000 feet AGL
Weather: no significant weather observed at this time

METAR text: KRFD 180554Z 00000KT 8SM MIFG FEW020 SCT250 16/15 A2999 RMK AO2 SLP154 T01560150 10217 20156 402220139 58004
Conditions at: KRFD (ROCKFORD , IL, US) observed 0554 UTC 18 June 2019
Temperature: 15.6°C (60°F)
Dewpoint: 15.0°C (59°F) [RH = 96%]
Pressure (altimeter): 29.99 inches Hg (1015.7 mb)
[Sea-level pressure: 1015.4 mb]
Winds: calm
Visibility: 8 miles (13 km)
Ceiling: at least 12,000 feet AGL
Clouds: few clouds at 2000 feet AGL
scattered clouds at 25000 feet AGL
Weather: MIFG  (shallow fog)

METAR text: KRFD 180454Z 00000KT 10SM FEW019 SCT026 17/16 A3001 RMK AO2 SLP161 T01720156
Conditions at: KRFD (ROCKFORD , IL, US) observed 0454 UTC 18 June 2019
Temperature: 17.2°C (63°F)
Dewpoint: 15.6°C (60°F) [RH = 90%]
Pressure (altimeter): 30.01 inches Hg (1016.3 mb)
[Sea-level pressure: 1016.1 mb]
Winds: calm
Visibility: 10 or more miles (16+ km)
Ceiling: at least 12,000 feet AGL
Clouds: few clouds at 1900 feet AGL
scattered clouds at 2600 feet AGL
Weather: no significant weather observed at this time

METAR text: KRFD 180420Z 00000KT 10SM BKN019 18/16 A3002 RMK AO2 T01780156
Conditions at: KRFD (ROCKFORD , IL, US) observed 0420 UTC 18 June 2019
Temperature: 17.8°C (64°F)
Dewpoint: 15.6°C (60°F) [RH = 87%]
Pressure (altimeter): 30.02 inches Hg (1016.7 mb)
Winds: calm
Visibility: 10 or more miles (16+ km)
Ceiling: 1900 feet AGL
Clouds: broken clouds at 1900 feet AGL
Weather: no significant weather observed at this time

METAR text: KRFD 180354Z 02003KT 10SM SCT027 17/16 A3001 RMK AO2 SLP161 T01720156
Conditions at: KRFD (ROCKFORD , IL, US) observed 0354 UTC 18 June 2019
Temperature: 17.2°C (63°F)
Dewpoint: 15.6°C (60°F) [RH = 90%]
Pressure (altimeter): 30.01 inches Hg (1016.3 mb)
[Sea-level pressure: 1016.1 mb]
Winds: from the NNE (20 degrees) at 3 MPH (3 knots; 1.5 m/s)
Visibility: 10 or more miles (16+ km)
Ceiling: at least 12,000 feet AGL
Clouds: scattered clouds at 2700 feet AGL
Weather: no significant weather observed at this time

METAR text: KRFD 180320Z 00000KT 10SM SCT027 18/16 A3001 RMK AO2 T01780156
Conditions at: KRFD (ROCKFORD , IL, US) observed 0320 UTC 18 June 2019
Temperature: 17.8°C (64°F)
Dewpoint: 15.6°C (60°F) [RH = 87%]
Pressure (altimeter): 30.01 inches Hg (1016.3 mb)
Winds: calm
Visibility: 10 or more miles (16+ km)
Ceiling: at least 12,000 feet AGL
Clouds: scattered clouds at 2700 feet AGL
Weather: no significant weather observed at this time

METAR text: KRFD 180254Z 10004KT 10SM BKN026 18/16 A3000 RMK AO2 SLP158 T01830161 53006
Conditions at: KRFD (ROCKFORD , IL, US) observed 0254 UTC 18 June 2019
Temperature: 18.3°C (65°F)
Dewpoint: 16.1°C (61°F) [RH = 87%]
Pressure (altimeter): 30.00 inches Hg (1016.0 mb)
[Sea-level pressure: 1015.8 mb]
Winds: from the E (100 degrees) at 5 MPH (4 knots; 2.1 m/s)
Visibility: 10 or more miles (16+ km)
Ceiling: 2600 feet AGL
Clouds: broken clouds at 2600 feet AGL
Weather: no significant weather observed at this time

METAR text: KRFD 180230Z 12004KT 10SM OVC025 19/16 A3000 RMK AO2 T01940161
Conditions at: KRFD (ROCKFORD , IL, US) observed 0230 UTC 18 June 2019
Temperature: 19.4°C (67°F)
Dewpoint: 16.1°C (61°F) [RH = 81%]
Pressure (altimeter): 30.00 inches Hg (1016.0 mb)
Winds: from the ESE (120 degrees) at 5 MPH (4 knots; 2.1 m/s)
Visibility: 10 or more miles (16+ km)
Ceiling: 2500 feet AGL
Clouds: overcast cloud deck at 2500 feet AGL
Weather: no significant weather observed at this time

METAR text: KRFD 180154Z 20003KT 10SM SCT030 BKN039 20/16 A2999 RMK AO2 SLP152 T02000161
Conditions at: KRFD (ROCKFORD , IL, US) observed 0154 UTC 18 June 2019
Temperature: 20.0°C (68°F)
Dewpoint: 16.1°C (61°F) [RH = 78%]
Pressure (altimeter): 29.99 inches Hg (1015.7 mb)
[Sea-level pressure: 1015.2 mb]
Winds: from the SSW (200 degrees) at 3 MPH (3 knots; 1.5 m/s)
Visibility: 10 or more miles (16+ km)
Ceiling: 3900 feet AGL
Clouds: scattered clouds at 3000 feet AGL
broken clouds at 3900 feet AGL
Weather: no significant weather observed at this time

METAR text: KRFD 180054Z 00000KT 10SM SCT029 OVC038 21/16 A2999 RMK AO2 SLP153 T02110161
Conditions at: KRFD (ROCKFORD , IL, US) observed 0054 UTC 18 June 2019
Temperature: 21.1°C (70°F)
Dewpoint: 16.1°C (61°F) [RH = 73%]
Pressure (altimeter): 29.99 inches Hg (1015.7 mb)
[Sea-level pressure: 1015.3 mb]
Winds: calm
Visibility: 10 or more miles (16+ km)
Ceiling: 3800 feet AGL
Clouds: scattered clouds at 2900 feet AGL
overcast cloud deck at 3800 feet AGL
Weather: no significant weather observed at this time

METAR text: KRFD 180040Z 00000KT 10SM BKN029 OVC037 21/16 A2999 RMK AO2 T02110161
Conditions at: KRFD (ROCKFORD , IL, US) observed 0040 UTC 18 June 2019
Temperature: 21.1°C (70°F)
Dewpoint: 16.1°C (61°F) [RH = 73%]
Pressure (altimeter): 29.99 inches Hg (1015.7 mb)
Winds: calm
Visibility: 10 or more miles (16+ km)
Ceiling: 2900 feet AGL
Clouds: broken clouds at 2900 feet AGL
overcast cloud deck at 3700 feet AGL
Weather: no significant weather observed at this time

METAR text: KRFD 172354Z 17003KT 10SM BKN035 22/16 A2999 RMK AO2 SLP152 T02170161 10222 20200 56004
Conditions at: KRFD (ROCKFORD , IL, US) observed 2354 UTC 17 June 2019
Temperature: 21.7°C (71°F)
Dewpoint: 16.1°C (61°F) [RH = 70%]
Pressure (altimeter): 29.99 inches Hg (1015.7 mb)
[Sea-level pressure: 1015.2 mb]
Winds: from the S (170 degrees) at 3 MPH (3 knots; 1.5 m/s)
Visibility: 10 or more miles (16+ km)
Ceiling: 3500 feet AGL
Clouds: broken clouds at 3500 feet AGL
Weather: no significant weather observed at this time

METAR text: KRFD 172324Z 18003KT 10SM OVC031 22/16 A2999 RMK AO2 T02170156
Conditions at: KRFD (ROCKFORD , IL, US) observed 2324 UTC 17 June 2019
Temperature: 21.7°C (71°F)
Dewpoint: 15.6°C (60°F) [RH = 68%]
Pressure (altimeter): 29.99 inches Hg (1015.7 mb)
Winds: from the S (180 degrees) at 3 MPH (3 knots; 1.5 m/s)
Visibility: 10 or more miles (16+ km)
Ceiling: 3100 feet AGL
Clouds: overcast cloud deck at 3100 feet AGL
Weather: no significant weather observed at this time

METAR text: KRFD 172254Z 14003KT 10SM OVC027 22/16 A2999 RMK AO2 SLP152 T02170156
Conditions at: KRFD (ROCKFORD , IL, US) observed 2254 UTC 17 June 2019
Temperature: 21.7°C (71°F)
Dewpoint: 15.6°C (60°F) [RH = 68%]
Pressure (altimeter): 29.99 inches Hg (1015.7 mb)
[Sea-level pressure: 1015.2 mb]
Winds: from the SE (140 degrees) at 3 MPH (3 knots; 1.5 m/s)
Visibility: 10 or more miles (16+ km)
Ceiling: 2700 feet AGL
Clouds: overcast cloud deck at 2700 feet AGL
Weather: no significant weather observed at this time

METAR text: KRFD 172154Z 23004KT 10SM OVC027 22/16 A2999 RMK AO2 SLP154 T02220161
Conditions at: KRFD (ROCKFORD , IL, US) observed 2154 UTC 17 June 2019
Temperature: 22.2°C (72°F)
Dewpoint: 16.1°C (61°F) [RH = 68%]
Pressure (altimeter): 29.99 inches Hg (1015.7 mb)
[Sea-level pressure: 1015.4 mb]
Winds: from the SW (230 degrees) at 5 MPH (4 knots; 2.1 m/s)
Visibility: 10 or more miles (16+ km)
Ceiling: 2700 feet AGL
Clouds: overcast cloud deck at 2700 feet AGL
Weather: no significant weather observed at this time

METAR text: KRFD 172054Z 00000KT 10SM OVC024 21/16 A3000 RMK AO2 SLP156 T02110156 56010
Conditions at: KRFD (ROCKFORD , IL, US) observed 2054 UTC 17 June 2019
Temperature: 21.1°C (70°F)
Dewpoint: 15.6°C (60°F) [RH = 71%]
Pressure (altimeter): 30.00 inches Hg (1016.0 mb)
[Sea-level pressure: 1015.6 mb]
Winds: calm
Visibility: 10 or more miles (16+ km)
Ceiling: 2400 feet AGL
Clouds: overcast cloud deck at 2400 feet AGL
Weather: no significant weather observed at this time

METAR text: KRFD 171954Z 00000KT 10SM OVC025 21/15 A3001 RMK AO2 SLP160 T02110150
Conditions at: KRFD (ROCKFORD , IL, US) observed 1954 UTC 17 June 2019
Temperature: 21.1°C (70°F)
Dewpoint: 15.0°C (59°F) [RH = 68%]
Pressure (altimeter): 30.01 inches Hg (1016.3 mb)
[Sea-level pressure: 1016.0 mb]
Winds: calm
Visibility: 10 or more miles (16+ km)
Ceiling: 2500 feet AGL
Clouds: overcast cloud deck at 2500 feet AGL
Weather: no significant weather observed at this time

METAR text: KRFD 171854Z 09004KT 10SM BKN020 OVC250 21/16 A3001 RMK AO2 SLP161 T02110156
Conditions at: KRFD (ROCKFORD , IL, US) observed 1854 UTC 17 June 2019
Temperature: 21.1°C (70°F)
Dewpoint: 15.6°C (60°F) [RH = 71%]
Pressure (altimeter): 30.01 inches Hg (1016.3 mb)
[Sea-level pressure: 1016.1 mb]
Winds: from the E (90 degrees) at 5 MPH (4 knots; 2.1 m/s)
Visibility: 10 or more miles (16+ km)
Ceiling: 2000 feet AGL
Clouds: broken clouds at 2000 feet AGL
overcast cloud deck at 25000 feet AGL
Weather: no significant weather observed at this time

METAR text: KRFD 171754Z 05005KT 10SM OVC019 20/15 A3003 RMK AO2 SLP167 T02000150 10206 20150 58003
Conditions at: KRFD (ROCKFORD , IL, US) observed 1754 UTC 17 June 2019
Temperature: 20.0°C (68°F)
Dewpoint: 15.0°C (59°F) [RH = 73%]
Pressure (altimeter): 30.03 inches Hg (1017.0 mb)
[Sea-level pressure: 1016.7 mb]
Winds: from the NE (50 degrees) at 6 MPH (5 knots; 2.6 m/s)
Visibility: 10 or more miles (16+ km)
Ceiling: 1900 feet AGL
Clouds: overcast cloud deck at 1900 feet AGL
Weather: no significant weather observed at this time

METAR text: KRFD 171654Z 01005KT 10SM OVC015 18/14 A3004 RMK AO2 SLP171 T01830139
Conditions at: KRFD (ROCKFORD , IL, US) observed 1654 UTC 17 June 2019
Temperature: 18.3°C (65°F)
Dewpoint: 13.9°C (57°F) [RH = 76%]
Pressure (altimeter): 30.04 inches Hg (1017.4 mb)
[Sea-level pressure: 1017.1 mb]
Winds: from the N (10 degrees) at 6 MPH (5 knots; 2.6 m/s)
Visibility: 10 or more miles (16+ km)
Ceiling: 1500 feet AGL
Clouds: overcast cloud deck at 1500 feet AGL
Weather: no significant weather observed at this time

METAR text: KRFD 171554Z 05005KT 10SM OVC016 17/13 A3004 RMK AO2 SLP173 T01720133
Conditions at: KRFD (ROCKFORD , IL, US) observed 1554 UTC 17 June 2019
Temperature: 17.2°C (63°F)
Dewpoint: 13.3°C (56°F) [RH = 78%]
Pressure (altimeter): 30.04 inches Hg (1017.4 mb)
[Sea-level pressure: 1017.3 mb]
Winds: from the NE (50 degrees) at 6 MPH (5 knots; 2.6 m/s)
Visibility: 10 or more miles (16+ km)
Ceiling: 1600 feet AGL
Clouds: overcast cloud deck at 1600 feet AGL
Weather: no significant weather observed at this time

METAR text: KRFD 171454Z 01006KT 10SM OVC017 18/13 A3004 RMK AO2 SLP170 T01780133 53002
Conditions at: KRFD (ROCKFORD , IL, US) observed 1454 UTC 17 June 2019
Temperature: 17.8°C (64°F)
Dewpoint: 13.3°C (56°F) [RH = 75%]
Pressure (altimeter): 30.04 inches Hg (1017.4 mb)
[Sea-level pressure: 1017.0 mb]
Winds: from the N (10 degrees) at 7 MPH (6 knots; 3.1 m/s)
Visibility: 10 or more miles (16+ km)
Ceiling: 1700 feet AGL
Clouds: overcast cloud deck at 1700 feet AGL
Weather: no significant weather observed at this time

METAR text: KRFD 171415Z VRB03KT 10SM OVC015 17/13 A3004 RMK AO2 T01720128
Conditions at: KRFD (ROCKFORD , IL, US) observed 1415 UTC 17 June 2019
Temperature: 17.2°C (63°F)
Dewpoint: 12.8°C (55°F) [RH = 75%]
Pressure (altimeter): 30.04 inches Hg (1017.4 mb)
Winds: variable direction winds at 3 MPH (3 knots; 1.5 m/s)
Visibility: 10 or more miles (16+ km)
Ceiling: 1500 feet AGL
Clouds: overcast cloud deck at 1500 feet AGL
Weather: no significant weather observed at this time

METAR text: KRFD 171354Z 34005KT 10SM BKN012 OVC250 17/13 A3003 RMK AO2 SLP168 T01670128
Conditions at: KRFD (ROCKFORD , IL, US) observed 1354 UTC 17 June 2019
Temperature: 16.7°C (62°F)
Dewpoint: 12.8°C (55°F) [RH = 78%]
Pressure (altimeter): 30.03 inches Hg (1017.0 mb)
[Sea-level pressure: 1016.8 mb]
Winds: from the NNW (340 degrees) at 6 MPH (5 knots; 2.6 m/s)
Visibility: 10 or more miles (16+ km)
Ceiling: 1200 feet AGL
Clouds: broken clouds at 1200 feet AGL
overcast cloud deck at 25000 feet AGL
Weather: no significant weather observed at this time

METAR text: KRFD 171254Z 01008KT 10SM OVC012 16/12 A3002 RMK AO2 SLP165 T01560122
Conditions at: KRFD (ROCKFORD , IL, US) observed 1254 UTC 17 June 2019
Temperature: 15.6°C (60°F)
Dewpoint: 12.2°C (54°F) [RH = 80%]
Pressure (altimeter): 30.02 inches Hg (1016.7 mb)
[Sea-level pressure: 1016.5 mb]
Winds: from the N (10 degrees) at 9 MPH (8 knots; 4.1 m/s)
Visibility: 10 or more miles (16+ km)
Ceiling: 1200 feet AGL
Clouds: overcast cloud deck at 1200 feet AGL
Weather: no significant weather observed at this time

METAR text: KRFD 171154Z 02005KT 10SM OVC011 15/12 A3003 RMK AO2 SLP167 60000 70001 T01500122 10150 20139 53014
Conditions at: KRFD (ROCKFORD , IL, US) observed 1154 UTC 17 June 2019
Temperature: 15.0°C (59°F)
Dewpoint: 12.2°C (54°F) [RH = 83%]
Pressure (altimeter): 30.03 inches Hg (1017.0 mb)
[Sea-level pressure: 1016.7 mb]
Winds: from the NNE (20 degrees) at 6 MPH (5 knots; 2.6 m/s)
Visibility: 10 or more miles (16+ km)
Ceiling: 1100 feet AGL
Clouds: overcast cloud deck at 1100 feet AGL
Weather: no significant weather observed at this time

METAR text: KRFD 171054Z 05004KT 10SM OVC012 14/12 A3002 RMK AO2 DZE07 SLP165 P0000 T01440122 $
Conditions at: KRFD (ROCKFORD , IL, US) observed 1054 UTC 17 June 2019
Temperature: 14.4°C (58°F)
Dewpoint: 12.2°C (54°F) [RH = 87%]
Pressure (altimeter): 30.02 inches Hg (1016.7 mb)
[Sea-level pressure: 1016.5 mb]
Winds: from the NE (50 degrees) at 5 MPH (4 knots; 2.1 m/s)
Visibility: 10 or more miles (16+ km)
Ceiling: 1200 feet AGL
Clouds: overcast cloud deck at 1200 feet AGL
Weather:
SOME DATA ABOVE MAY BE INACCURATE!!!
"$" is an indication the sensor requires maintenance

METAR text: KRFD 171021Z 03004KT 10SM SCT008 OVC014 14/12 A2999 RMK AO2 DZE07 P0000 T01390122 $
Conditions at: KRFD (ROCKFORD , IL, US) observed 1021 UTC 17 June 2019
Temperature: 13.9°C (57°F)
Dewpoint: 12.2°C (54°F) [RH = 89%]
Pressure (altimeter): 29.99 inches Hg (1015.7 mb)
Winds: from the NNE (30 degrees) at 5 MPH (4 knots; 2.1 m/s)
Visibility: 10 or more miles (16+ km)
Ceiling: 1400 feet AGL
Clouds: scattered clouds at 800 feet AGL
overcast cloud deck at 1400 feet AGL
Weather:
SOME DATA ABOVE MAY BE INACCURATE!!!
"$" is an indication the sensor requires maintenance

METAR text: KRFD 170954Z 07004KT 9SM -DZ OVC009 14/12 A2999 RMK AO2 DZB28 SLP153 P0000 T01390122 $
Conditions at: KRFD (ROCKFORD , IL, US) observed 0954 UTC 17 June 2019
Temperature: 13.9°C (57°F)
Dewpoint: 12.2°C (54°F) [RH = 89%]
Pressure (altimeter): 29.99 inches Hg (1015.7 mb)
[Sea-level pressure: 1015.3 mb]
Winds: from the ENE (70 degrees) at 5 MPH (4 knots; 2.1 m/s)
Visibility: 9 miles (14 km)
Ceiling: 900 feet AGL
Clouds: overcast cloud deck at 900 feet AGL
Weather: -DZ  (light drizzle)
SOME DATA ABOVE MAY BE INACCURATE!!!
"$" is an indication the sensor requires maintenance

METAR text: KRFD 170931Z 06005KT 9SM -DZ OVC009 14/12 A2999 RMK AO2 DZB28 P0000 T01390122 $
Conditions at: KRFD (ROCKFORD , IL, US) observed 0931 UTC 17 June 2019
Temperature: 13.9°C (57°F)
Dewpoint: 12.2°C (54°F) [RH = 89%]
Pressure (altimeter): 29.99 inches Hg (1015.7 mb)
Winds: from the ENE (60 degrees) at 6 MPH (5 knots; 2.6 m/s)
Visibility: 9 miles (14 km)
Ceiling: 900 feet AGL
Clouds: overcast cloud deck at 900 feet AGL
Weather: -DZ  (light drizzle)
SOME DATA ABOVE MAY BE INACCURATE!!!
"$" is an indication the sensor requires maintenance

METAR text: KRFD 170854Z 00000KT 10SM OVC011 14/12 A2999 RMK AO2 SLP153 T01440122 $
Conditions at: KRFD (ROCKFORD , IL, US) observed 0854 UTC 17 June 2019
Temperature: 14.4°C (58°F)
Dewpoint: 12.2°C (54°F) [RH = 87%]
Pressure (altimeter): 29.99 inches Hg (1015.7 mb)
[Sea-level pressure: 1015.3 mb]
Winds: calm
Visibility: 10 or more miles (16+ km)
Ceiling: 1100 feet AGL
Clouds: overcast cloud deck at 1100 feet AGL
Weather:
SOME DATA ABOVE MAY BE INACCURATE!!!
"$" is an indication the sensor requires maintenance

METAR text: KRFD 170843Z 00000KT 10SM OVC011 14/12 A2999 RMK AO2 T01440122 $
Conditions at: KRFD (ROCKFORD , IL, US) observed 0843 UTC 17 June 2019
Temperature: 14.4°C (58°F)
Dewpoint: 12.2°C (54°F) [RH = 87%]
Pressure (altimeter): 29.99 inches Hg (1015.7 mb)
Winds: calm
Visibility: 10 or more miles (16+ km)
Ceiling: 1100 feet AGL
Clouds: overcast cloud deck at 1100 feet AGL
Weather:
SOME DATA ABOVE MAY BE INACCURATE!!!
"$" is an indication the sensor requires maintenance

METAR text: KRFD 170754Z 07004KT 10SM OVC008 14/12 A2997 RMK AO2 SLP147 T01390122 $
Conditions at: KRFD (ROCKFORD , IL, US) observed 0754 UTC 17 June 2019
Temperature: 13.9°C (57°F)
Dewpoint: 12.2°C (54°F) [RH = 89%]
Pressure (altimeter): 29.97 inches Hg (1015.0 mb)
[Sea-level pressure: 1014.7 mb]
Winds: from the ENE (70 degrees) at 5 MPH (4 knots; 2.1 m/s)
Visibility: 10 or more miles (16+ km)
Ceiling: 800 feet AGL
Clouds: overcast cloud deck at 800 feet AGL
Weather:
SOME DATA ABOVE MAY BE INACCURATE!!!
"$" is an indication the sensor requires maintenance

METAR text: KRFD 170654Z 05006KT 10SM OVC008 14/12 A2996 RMK AO2 SLP143 T01390122
Conditions at: KRFD (ROCKFORD , IL, US) observed 0654 UTC 17 June 2019
Temperature: 13.9°C (57°F)
Dewpoint: 12.2°C (54°F) [RH = 89%]
Pressure (altimeter): 29.96 inches Hg (1014.6 mb)
[Sea-level pressure: 1014.3 mb]
Winds: from the NE (50 degrees) at 7 MPH (6 knots; 3.1 m/s)
Visibility: 10 or more miles (16+ km)
Ceiling: 800 feet AGL
Clouds: overcast cloud deck at 800 feet AGL
Weather: no significant weather observed at this time

Forecast for: KRFD (ROCKFORD , IL, US)
Text: KRFD 181740Z 1818/1918 30005KT P6SM BKN035
Forecast period: 1800 to 2000 UTC 18 June 2019
Forecast type: FROM: standard forecast or significant change
Winds: from the WNW (300 degrees) at 6 MPH (5 knots; 2.6 m/s)
Visibility: 6 or more miles 10+ km)
Ceiling: 3500 feet AGL
Clouds: broken clouds at 3500 feet AGL
Weather: no significant weather forecast for this period
Text: FM182000 28005KT P6SM SCT040 SCT100
Forecast period: 2000 UTC 18 June 2019 to 0000 UTC 19 June 2019
Forecast type: FROM: standard forecast or significant change
Winds: from the W (280 degrees) at 6 MPH (5 knots; 2.6 m/s)
Visibility: 6 or more miles 10+ km)
Ceiling: at least 12,000 feet AGL
Clouds: scattered clouds at 4000 feet AGL
scattered clouds at 10000 feet AGL
Weather: no significant weather forecast for this period
Text: FM190000 VRB03KT P6SM BKN050
Forecast period: 0000 to 0700 UTC 19 June 2019
Forecast type: FROM: standard forecast or significant change
Winds: variable direction winds at 3 MPH (3 knots; 1.5 m/s)
Visibility: 6 or more miles 10+ km)
Ceiling: 5000 feet AGL
Clouds: broken clouds at 5000 feet AGL
Weather: no significant weather forecast for this period
Text: FM190700 VRB03KT P6SM VCSH OVC040
Forecast period: 0700 to 1400 UTC 19 June 2019
Forecast type: FROM: standard forecast or significant change
Winds: variable direction winds at 3 MPH (3 knots; 1.5 m/s)
Visibility: 6 or more miles 10+ km)
Ceiling: 4000 feet AGL
Clouds: overcast cloud deck at 4000 feet AGL
Weather: VCSH  (showers in vicinity)
Text: PROB30 1907/1912 4SM -SHRA BR
Forecast period: 0700 to 1200 UTC 19 June 2019
Forecast type: PROBABLE: 30 percent likelihood of the following during this time
Visibility: 4 miles (6 km)
Ceiling: unknown
Clouds: missing
Weather: -SHRA BR  (light rain showers, mist)
Text: FM191400 04008KT 6SM -SHRA SCT025 OVC035
Forecast period: 1400 to 1800 UTC 19 June 2019
Forecast type: FROM: standard forecast or significant change
Winds: from the NE (40 degrees) at 9 MPH (8 knots; 4.1 m/s)
Visibility: 6 miles (10 km)
Ceiling: 3500 feet AGL
Clouds: scattered clouds at 2500 feet AGL
overcast cloud deck at 3500 feet AGL
Weather: -SHRA  (light rain showers)